• Join FlightAware (Why Join?)
  • Login
  • US Flag 
08:09PM EDT


 

Airport Tracker/Info


-or-


 

Live Flight TrackerFlight Track Log ✈ DAL268 ✈ 06-Jun-2013 ✈ KATL - KJFK

Flight Track Log - Related Links

Times and Time Zones

All times are in EDT time to prevent confusion due to time zone crossing. See the DAL268 flight status page for this flight to view local times or setup timezone preferences in your user account.

Time Position Orientation Groundspeed Altitude Reporting Facility
EDT Latitude Longitude Course Direction KTS MPH feet Rate Location/Type
06:27PM 33.6333 -84.3333 64° Northeast 229 264 3,000  Level Atlanta TRACON
06:28PM 33.6333 -84.2500 90° East 273 314 5,400 2,460 Climbing Atlanta TRACON
06:29PM 33.7118 -84.0040 101° East  Level FlightAware Approximate
06:29PM 33.6333 -84.1500 90° East 286 329 8,000  Level Atlanta TRACON
06:30PM 33.6886 -83.8646 101° East  Level FlightAware Approximate
06:30PM 33.6336 -84.0614 90° East 293 337 10,200  Level Atlanta Center
06:31PM 33.6653 -83.7253 101° East  Level FlightAware Approximate
06:31PM 33.6419 -83.9539 85° East 302 348 11,300  Level Atlanta Center
06:32PM 33.6677 -83.5901 64° Northeast  Level FlightAware Approximate
06:32PM 33.6481 -83.8317 87° East 345 397 12,700  Level Atlanta Center
06:33PM 33.7198 -83.4625 64° Northeast  Level FlightAware Approximate
06:33PM 33.6561 -83.6919 86° East 395 455 14,500  Level Atlanta Center
06:34PM 33.6911 -83.5569 73° East 411 473 16,500 1,740 Climbing Atlanta Center
06:35PM 33.7425 -83.4292 64° Northeast 424 488 18,000 1,620 Climbing Atlanta Center
06:36PM 33.7983 -83.2939 64° Northeast 441 507 19,800 1,560 Climbing Atlanta Center
06:37PM 33.8536 -83.1558 64° Northeast 448 516 21,200 1,260 Climbing Atlanta Center
06:38PM 33.9131 -83.0025 65° Northeast 448 516 22,400 1,020 Climbing Atlanta Center
06:39PM 33.9744 -82.8614 62° Northeast 460 529 23,300 960 Climbing Atlanta Center
06:40PM 34.0314 -82.7128 65° Northeast 473 544 24,400 1,080 Climbing Atlanta Center
06:41PM 34.0858 -82.5664 66° East 483 556 25,500 1,200 Climbing Atlanta Center
06:42PM 34.1489 -82.4172 63° Northeast 483 556 26,800 1,200 Climbing Atlanta Center
06:43PM 34.2053 -82.2706 65° Northeast 483 556 27,900 1,140 Climbing Atlanta Center
06:44PM 34.2656 -82.1208 64° Northeast 483 556 29,100 960 Climbing Atlanta Center
06:45PM 34.3342 -81.9836 59° Northeast 483 556 29,900 780 Climbing Atlanta Center
06:46PM 34.4069 -81.8408 58° Northeast 489 563 30,700 540 Climbing Atlanta Center
06:47PM 34.4753 -81.6981 60° Northeast 489 563 31,000 120 Climbing Atlanta Center
06:48PM 34.5497 -81.5547 58° Northeast 489 563 31,000  Level Atlanta Center
06:49PM 34.6217 -81.4086 59° Northeast 496 571 31,000  Level Atlanta Center
06:50PM 34.6836 -81.2803 60° Northeast 496 571 31,000  Level Atlanta Center
06:51PM 34.7575 -81.1339 58° Northeast 503 579 31,000  Level Atlanta Center
06:52PM 34.8292 -80.9872 59° Northeast 501 577 31,000  Level Atlanta Center
06:53PM 34.8983 -80.8403 60° Northeast 509 586 31,000  Level Atlanta Center
06:54PM 34.9694 -80.6906 60° Northeast 509 586 31,000  Level Atlanta Center
06:55PM 35.0444 -80.5403 59° Northeast 509 586 31,000  Level Atlanta Center
06:58PM 35.2125 -80.1806 60° Northeast 510 587 31,000  Level Washington Center
06:59PM 35.2733 -80.0594 58° Northeast 510 587 31,000  Level Washington Center
07:00PM 35.3525 -79.8983 59° Northeast 510 587 31,000  Level Washington Center
07:01PM 35.4244 -79.7467 60° Northeast 505 581 31,000  Level Washington Center
07:02PM 35.4964 -79.6000 59° Northeast 505 581 31,000  Level Washington Center
07:03PM 35.5661 -79.4478 61° Northeast 505 581 31,000  Level Washington Center
07:04PM 35.6397 -79.2953 59° Northeast 505 581 31,000  Level Washington Center
07:05PM 35.7111 -79.1428 60° Northeast 505 581 31,000  Level Washington Center
07:06PM 35.7822 -78.9922 60° Northeast 505 581 31,000  Level Washington Center
07:07PM 35.8556 -78.8364 60° Northeast 510 587 31,000  Level Washington Center
07:08PM 35.8892 -78.6661 76° East 510 587 31,000  Level Washington Center
07:09PM 35.9103 -78.4950 81° East 503 579 31,000  Level Washington Center
07:10PM 35.9269 -78.3186 83° East 508 585 31,000  Level Washington Center
07:11PM 35.9431 -78.1447 83° East 508 585 31,000  Level Washington Center
07:12PM 35.9572 -77.9708 84° East 508 585 31,000  Level Washington Center
07:13PM 35.9753 -77.7917 83° East 513 590 31,000  Level Washington Center
07:14PM 36.0281 -77.6314 68° East 511 588 31,000  Level Washington Center
07:15PM 36.1158 -77.4922 52° Northeast 498 573 31,000  Level Washington Center
07:16PM 36.2158 -77.3786 42° Northeast 497 572 31,000  Level Washington Center
07:17PM 36.3258 -77.2678 39° Northeast 484 557 31,000  Level Washington Center
07:18PM 36.4339 -77.1564 40° Northeast 504 580 31,000  Level Washington Center
07:19PM 36.5436 -77.0422 40° Northeast 504 580 31,000  Level Washington Center
07:20PM 36.6556 -76.9278 39° Northeast 510 587 31,000  Level Washington Center
07:21PM 36.7653 -76.8183 39° Northeast 505 581 31,000  Level Washington Center
07:22PM 36.8769 -76.7031 40° Northeast 505 581 31,000  Level Washington Center
07:23PM 36.9864 -76.5878 40° Northeast 505 581 31,000  Level Washington Center
07:24PM 37.1064 -76.4617 40° Northeast 510 587 31,000  Level Washington Center
07:25PM 37.2197 -76.3456 39° Northeast 510 587 31,000  Level Washington Center
07:26PM 37.3308 -76.2317 39° Northeast 510 587 31,000  Level Washington Center
07:27PM 37.4442 -76.1203 38° Northeast 510 587 31,000  Level Washington Center
07:28PM 37.5550 -76.0031 40° Northeast 515 593 31,000  Level Washington Center
07:29PM 37.6681 -75.8883 39° Northeast 515 593 31,000  Level Washington Center
07:30PM 37.7789 -75.7706 40° Northeast 520 598 31,000  Level Washington Center
07:31PM 37.8894 -75.6522 40° Northeast 520 598 31,000  Level Washington Center
07:32PM 38.0000 -75.5339 40° Northeast 520 598 31,000  Level Washington Center
07:33PM 38.1231 -75.4361 32° Northeast 520 598 31,000  Level Washington Center
07:34PM 38.2481 -75.3539 27° Northeast 513 590 31,000  Level Washington Center
07:35PM 38.3603 -75.2686 31° Northeast 513 590 31,000  Level Washington Center
07:36PM 38.4914 -75.1939 24° Northeast 508 585 31,000  Level Washington Center
07:37PM 38.6183 -75.1081 28° Northeast 508 585 31,000  Level Washington Center
07:38PM 38.7472 -75.0300 25° Northeast 508 585 31,000  Level Washington Center
07:39PM 38.8739 -74.9436 28° Northeast 508 585 31,000  Level Washington Center
07:40PM 39.0006 -74.8650 26° Northeast 508 585 31,000 -360 Level Washington Center
07:41PM 39.1231 -74.7703 31° Northeast 508 585 30,400 -2,340 Descending Washington Center
07:43PM 39.3511 -74.5322 39° Northeast 516 594 24,200 -3,000 Descending New York Center
07:44PM 39.4419 -74.4269 42° Northeast 491 565 21,600 -2,640 Descending New York Center
07:45PM 39.5519 -74.3086 40° Northeast 470 541 18,900 -1,860 Descending New York Center
07:46PM 39.6489 -74.2031 40° Northeast 463 533 17,900 -1,740 Descending New York Center
07:47PM 39.7328 -74.1100 40° Northeast 450 518 15,500 -2,100 Descending New York Center
07:48PM 39.8317 -74.0011 40° Northeast 433 498 13,800 -1,620 Descending New York Center
07:49PM 39.9233 -73.9297 31° Northeast 397 457 12,400 -1,380 Descending New York Center
07:50PM 40.0047 -73.8519 36° Northeast 375 432 11,100 -780 Descending New York Center
07:51PM 40.0775 -73.7739 39° Northeast 342 394 10,900 -720 Descending New York Center
07:52PM 40.1394 -73.7114 38° Northeast 326 375 9,700 -1,440 Descending New York Center
07:53PM 40.2167 -73.7500 339° North 281 323 8,200 -1,800 Descending New York TRACON
07:54PM 40.2833 -73.8167 323° Northwest 291 335 6,200 -1,800 Descending New York TRACON
07:55PM 40.3500 -73.8667 330° Northwest 284 327 4,600 -1,500 Descending New York TRACON
07:55PM 40.4000 -73.9167 323° Northwest 281 323 3,400 -900 Descending New York TRACON
07:56PM 40.4667 -73.9667 330° Northwest 255 293 2,900 -240 Descending New York TRACON
07:57PM 40.5333 -73.9667 360° North 217 250 3,000 -480 Climbing New York TRACON
07:58PM 40.5833 -73.9333 27° Northeast 210 242 2,000 -1,020 Descending New York TRACON